Clinton, Minnesota
Current Conditions -  °F | °C
As of 2:14 AM on Thursday 27 Nov 2014 (Local Time) from KVVV Reporting Station
Clear Clear  
Wind Chill: -20°   Ceiling: Unl
Heat Index: -6°   Visibility: 10mi
Dew Point: -9°   Wind: 7mph
Humidity: 84%   Direction: 320°NW
Pressure: 30.52"   Gusts: NA
Location:  45.46°N, 96.43°W
Report Text: KVVV 270814Z AUTO 32006KT 10SM CLR M21/M23 A3052 RMK AO2
Loading
Personal Weather Stations






























Interactive Weather Map New forecast layout! Learn more

10-Day Weather Forecast

Advertisements
Track Severe Weather on mobile